createdAt,value
2018-09-27T00:00:36.631Z,102625.88
2018-09-27T00:03:06.724Z,102633.80
2018-09-27T00:05:37.942Z,102634.67
2018-09-27T00:08:08.145Z,102630.30
2018-09-27T00:10:38.323Z,102621.53
2018-09-27T00:13:08.497Z,102619.32
2018-09-27T00:15:38.692Z,102618.91
2018-09-27T00:18:08.797Z,102622.41
2018-09-27T00:20:38.896Z,102620.64
2018-09-27T00:23:08.985Z,102618.45
2018-09-27T00:25:39.074Z,102623.30
2018-09-27T00:28:09.246Z,102623.75
2018-09-27T00:30:39.347Z,102616.69
2018-09-27T00:33:09.449Z,102611.42
2018-09-27T00:35:39.565Z,102611.88
2018-09-27T00:38:09.650Z,102607.47
2018-09-27T00:40:39.741Z,102614.02
2018-09-27T00:43:09.902Z,102617.11
2018-09-27T00:45:42.912Z,102618.00
2018-09-27T00:48:15.461Z,102610.55
2018-09-27T00:50:46.104Z,102606.63
2018-09-27T00:53:16.242Z,102608.84
2018-09-27T00:55:46.402Z,102613.28
2018-09-27T00:58:16.547Z,102613.73
2018-09-27T01:00:46.720Z,102610.20
2018-09-27T01:03:16.827Z,102608.00
2018-09-27T01:05:46.980Z,102610.19
2018-09-27T01:08:17.046Z,102607.56
2018-09-27T01:10:47.160Z,102612.85
2018-09-27T01:13:17.237Z,102614.17
2018-09-27T01:15:47.382Z,102609.37
2018-09-27T01:18:17.475Z,102607.64
2018-09-27T01:20:50.403Z,102609.41
2018-09-27T01:23:20.456Z,102608.94
2018-09-27T01:25:50.596Z,102611.64
2018-09-27T01:28:20.669Z,102609.02
2018-09-27T01:30:50.816Z,102605.06
2018-09-27T01:33:20.929Z,102605.54
2018-09-27T01:35:51.201Z,102604.22
2018-09-27T01:38:21.382Z,102601.64
2018-09-27T01:40:51.472Z,102601.24
2018-09-27T01:43:21.556Z,102603.39
2018-09-27T01:45:51.822Z,102594.61
2018-09-27T01:48:21.890Z,102595.44
2018-09-27T01:50:51.983Z,102595.87
2018-09-27T01:53:22.088Z,102599.41
2018-09-27T01:55:52.226Z,102594.59
2018-09-27T01:58:22.288Z,102594.20
2018-09-27T02:00:52.410Z,102586.30
2018-09-27T02:03:22.469Z,102588.50
2018-09-27T02:05:52.644Z,102571.43
2018-09-27T02:08:22.733Z,102576.27
2018-09-27T02:10:52.942Z,102574.55
2018-09-27T02:13:23.030Z,102573.26
2018-09-27T02:15:53.117Z,102568.46
2018-09-27T02:18:23.204Z,102569.80
2018-09-27T02:20:53.360Z,102565.42
2018-09-27T02:23:23.435Z,102562.83
2018-09-27T02:25:53.528Z,102558.87
2018-09-27T02:28:23.559Z,102555.83
2018-09-27T02:30:53.704Z,102544.44
2018-09-27T02:33:23.769Z,102547.94
2018-09-27T02:35:53.874Z,102542.25
2018-09-27T02:38:23.980Z,102542.25
2018-09-27T02:40:54.091Z,102538.33
2018-09-27T02:43:24.177Z,102534.39
2018-09-27T02:45:54.302Z,102539.22
2018-09-27T02:48:24.416Z,102530.47
2018-09-27T02:50:54.557Z,102526.52
2018-09-27T02:53:24.616Z,102523.02
2018-09-27T02:55:54.729Z,102528.27
2018-09-27T02:58:24.869Z,102532.98
2018-09-27T03:00:55.026Z,102528.92
2018-09-27T03:03:25.138Z,102525.39
2018-09-27T03:05:55.281Z,102520.63
2018-09-27T03:08:25.374Z,102520.24
2018-09-27T03:10:55.462Z,102523.34
2018-09-27T03:13:26.714Z,102519.41
2018-09-27T03:15:56.814Z,102513.76
2018-09-27T03:18:26.931Z,102511.11
2018-09-27T03:20:57.095Z,102508.92
2018-09-27T03:23:27.106Z,102511.16
2018-09-27T03:25:57.796Z,102513.80
2018-09-27T03:28:27.859Z,102510.73
2018-09-27T03:30:57.953Z,102505.92
2018-09-27T03:33:28.013Z,102499.30
2018-09-27T03:35:58.183Z,102501.92
2018-09-27T03:38:28.304Z,102501.08
2018-09-27T03:40:58.436Z,102505.91
2018-09-27T03:43:28.626Z,102506.34
2018-09-27T03:45:58.802Z,102505.49
2018-09-27T03:48:28.869Z,102502.44
2018-09-27T03:50:58.928Z,102498.96
2018-09-27T03:53:29.053Z,102500.30
2018-09-27T03:55:59.156Z,102498.11
2018-09-27T03:58:29.258Z,102502.96
2018-09-27T04:00:59.363Z,102498.98
2018-09-27T04:03:29.495Z,102492.88
2018-09-27T04:05:59.578Z,102493.77
2018-09-27T04:08:29.739Z,102494.21
2018-09-27T04:10:59.934Z,102488.95
2018-09-27T04:13:30.095Z,102493.33
2018-09-27T04:16:00.228Z,102487.64
2018-09-27T04:18:30.353Z,102481.10
2018-09-27T04:21:00.456Z,102480.22
2018-09-27T04:23:30.534Z,102473.70
2018-09-27T04:26:00.630Z,102476.34
2018-09-27T04:28:30.773Z,102471.08
2018-09-27T04:31:00.917Z,102470.16
2018-09-27T04:33:31.080Z,102474.95
2018-09-27T04:36:01.242Z,102471.91
2018-09-27T04:38:31.420Z,102473.25
2018-09-27T04:41:01.504Z,102468.86
2018-09-27T04:43:31.708Z,102473.70
2018-09-27T04:46:01.792Z,102472.75
2018-09-27T04:48:32.019Z,102478.01
2018-09-27T04:51:02.102Z,102479.80
2018-09-27T04:53:32.208Z,102474.99
2018-09-27T04:56:02.326Z,102473.67
2018-09-27T04:58:32.501Z,102478.94
2018-09-27T05:01:02.564Z,102477.15
2018-09-27T05:03:32.670Z,102477.55
2018-09-27T05:06:02.795Z,102473.16
2018-09-27T05:08:32.978Z,102477.13
2018-09-27T05:11:03.163Z,102471.88
2018-09-27T05:13:33.312Z,102470.14
2018-09-27T05:16:03.537Z,102473.65
2018-09-27T05:18:38.591Z,102473.66
2018-09-27T05:21:08.714Z,102474.09
2018-09-27T05:23:38.869Z,102475.88
2018-09-27T05:26:09.062Z,102474.11
2018-09-27T05:28:39.283Z,102474.97
2018-09-27T05:31:09.393Z,102470.17
2018-09-27T05:33:39.581Z,102470.59
2018-09-27T05:36:09.598Z,102472.30
2018-09-27T05:38:39.794Z,102467.80
2018-09-27T05:41:09.881Z,102461.66
2018-09-27T05:43:40.007Z,102466.08
2018-09-27T05:46:10.098Z,102458.25
2018-09-27T05:48:40.262Z,102467.00
2018-09-27T05:51:10.448Z,102462.56
2018-09-27T05:53:40.567Z,102458.13
2018-09-27T05:56:10.770Z,102469.43
2018-09-27T05:58:40.927Z,102462.32
2018-09-27T06:01:11.071Z,102464.95
2018-09-27T06:03:41.279Z,102463.16
2018-09-27T06:06:11.309Z,102464.02
2018-09-27T06:08:41.404Z,102465.76
2018-09-27T06:11:11.551Z,102470.95
2018-09-27T06:13:41.649Z,102470.41
2018-09-27T06:16:11.749Z,102471.20
2018-09-27T06:18:41.881Z,102468.50
2018-09-27T06:21:12.018Z,102466.31
2018-09-27T06:23:42.118Z,102459.66
2018-09-27T06:26:12.306Z,102456.11
2018-09-27T06:28:42.448Z,102457.27
2018-09-27T06:31:12.528Z,102460.67
2018-09-27T06:33:42.711Z,102461.44
2018-09-27T06:36:12.833Z,102465.24
2018-09-27T06:38:42.990Z,102459.33
2018-09-27T06:41:13.087Z,102459.62
2018-09-27T06:43:43.213Z,102451.08
2018-09-27T06:46:13.356Z,102453.03
2018-09-27T06:48:43.551Z,102454.73
2018-09-27T06:51:13.761Z,102447.13
2018-09-27T06:53:43.903Z,102441.38
2018-09-27T06:56:14.042Z,102435.05
2018-09-27T06:58:44.197Z,102425.86
2018-09-27T07:01:14.382Z,102424.56
2018-09-27T07:03:44.534Z,102421.19
2018-09-27T07:06:14.619Z,102417.36
2018-09-27T07:08:44.899Z,102420.16
2018-09-27T07:11:15.191Z,102418.44
2018-09-27T07:13:45.385Z,102416.23
2018-09-27T07:16:15.491Z,102416.64
2018-09-27T07:18:45.642Z,102410.91
2018-09-27T07:21:15.752Z,102413.73
2018-09-27T07:23:45.983Z,102405.84
2018-09-27T07:26:16.130Z,102402.58
2018-09-27T07:28:46.308Z,102402.19
2018-09-27T07:31:16.580Z,102398.44
2018-09-27T07:33:46.611Z,102400.04
2018-09-27T07:36:16.655Z,102399.39
2018-09-27T07:38:46.775Z,102402.52
2018-09-27T07:41:16.946Z,102404.02
2018-09-27T07:43:47.075Z,102402.17
2018-09-27T07:46:17.177Z,102403.69
2018-09-27T07:48:47.236Z,102399.25
2018-09-27T07:51:18.122Z,102403.89
2018-09-27T07:53:48.298Z,102399.65
2018-09-27T07:56:18.374Z,102397.66
2018-09-27T07:58:48.486Z,102393.80
2018-09-27T08:01:18.625Z,102392.89
2018-09-27T08:03:48.783Z,102387.99
2018-09-27T08:06:18.918Z,102387.42
2018-09-27T08:08:48.987Z,102379.49
2018-09-27T08:11:19.200Z,102385.66
2018-09-27T08:13:49.363Z,102394.25
2018-09-27T08:16:19.459Z,102387.58
2018-09-27T08:18:49.557Z,102388.70
2018-09-27T08:21:19.742Z,102389.77
2018-09-27T08:23:49.799Z,102388.97
2018-09-27T08:26:30.360Z,102388.34
2018-09-27T08:29:00.442Z,102375.16
2018-09-27T08:31:30.502Z,102387.23
2018-09-27T08:34:00.601Z,102383.83
2018-09-27T08:36:30.733Z,102382.45
2018-09-27T08:39:00.873Z,102372.61
2018-09-27T08:41:30.950Z,102374.62
2018-09-27T08:44:01.186Z,102371.63
2018-09-27T08:46:31.356Z,102373.13
2018-09-27T08:49:02.419Z,102371.75
2018-09-27T08:51:32.651Z,102372.91
2018-09-27T08:54:02.879Z,102367.64
2018-09-27T08:56:33.016Z,102364.58
2018-09-27T08:59:03.256Z,102359.16
2018-09-27T09:01:33.490Z,102353.34
2018-09-27T09:04:03.606Z,102347.10
2018-09-27T09:06:33.687Z,102337.14
2018-09-27T09:09:09.199Z,102338.55
2018-09-27T09:11:45.496Z,102325.55
2018-09-27T09:14:15.759Z,102318.09
2018-09-27T09:16:45.830Z,102323.33
2018-09-27T09:19:15.899Z,102314.42
2018-09-27T09:21:45.973Z,102317.56
2018-09-27T09:24:16.176Z,102300.92
2018-09-27T09:26:50.924Z,102309.02
2018-09-27T09:29:25.505Z,102308.22
2018-09-27T09:31:59.183Z,102310.44
2018-09-27T09:34:40.969Z,102299.75
2018-09-27T09:37:16.049Z,102293.30
2018-09-27T09:39:52.239Z,102290.03
2018-09-27T09:42:29.431Z,102288.17
2018-09-27T09:45:02.898Z,102280.80
2018-09-27T09:47:36.075Z,102276.10
2018-09-27T09:50:17.437Z,102274.03
2018-09-27T09:52:49.232Z,102276.83
2018-09-27T09:55:27.274Z,102264.01
2018-09-27T09:58:03.502Z,102261.81
2018-09-27T10:00:38.772Z,102257.25
2018-09-27T10:03:10.456Z,102257.55
2018-09-27T10:05:40.635Z,102250.13
2018-09-27T10:08:10.692Z,102243.44
2018-09-27T10:10:40.851Z,102244.22
2018-09-27T10:13:10.949Z,102233.28
2018-09-27T10:15:41.060Z,102228.91
2018-09-27T10:18:11.190Z,102224.62
2018-09-27T10:20:41.300Z,102224.14
2018-09-27T10:23:11.490Z,102222.25
2018-09-27T10:25:41.613Z,102217.64
2018-09-27T10:28:11.707Z,102211.58
2018-09-27T10:30:41.788Z,102210.80
2018-09-27T10:33:11.826Z,102212.39
2018-09-27T10:35:42.040Z,102208.83
2018-09-27T10:38:12.269Z,102200.95
2018-09-27T10:40:42.387Z,102198.98
2018-09-27T10:43:12.473Z,102191.33
2018-09-27T10:45:42.620Z,102192.92
2018-09-27T10:48:12.695Z,102196.61
2018-09-27T10:50:42.856Z,102193.10
2018-09-27T10:53:13.582Z,102195.92
2018-09-27T10:55:43.669Z,102189.47
2018-09-27T10:58:13.838Z,102186.46
2018-09-27T11:00:43.987Z,102179.00
2018-09-27T11:03:14.079Z,102177.20
2018-09-27T11:05:44.259Z,102169.20
2018-09-27T11:08:14.345Z,102173.14
2018-09-27T11:10:44.508Z,102161.36
2018-09-27T11:13:14.600Z,102154.95
2018-09-27T11:15:44.691Z,102156.66
2018-09-27T11:18:14.781Z,102150.35
2018-09-27T11:20:44.963Z,102148.05
2018-09-27T11:23:15.081Z,102148.41
2018-09-27T11:25:45.157Z,102146.13
2018-09-27T11:28:15.279Z,102145.23
2018-09-27T11:30:45.478Z,102140.20
2018-09-27T11:33:15.512Z,102129.69
2018-09-27T11:35:45.633Z,102125.45
2018-09-27T11:38:15.748Z,102122.36
2018-09-27T11:40:46.040Z,102109.07
2018-09-27T11:43:16.112Z,102101.81
2018-09-27T11:45:46.276Z,102100.83
2018-09-27T11:48:16.402Z,102101.71
2018-09-27T11:50:46.527Z,102098.09
2018-09-27T11:53:16.597Z,102095.11
2018-09-27T11:55:46.727Z,102088.59
2018-09-27T11:58:16.842Z,102086.84
2018-09-27T12:00:46.979Z,102077.80
2018-09-27T12:03:17.196Z,102072.39
2018-09-27T12:05:47.343Z,102069.56
2018-09-27T12:08:17.449Z,102063.80
2018-09-27T12:10:47.988Z,102053.89
2018-09-27T12:13:18.049Z,102052.58
2018-09-27T12:15:48.156Z,102043.73
2018-09-27T12:18:18.240Z,102045.81
2018-09-27T12:20:48.539Z,102036.84
2018-09-27T12:23:18.599Z,102034.30
2018-09-27T12:25:48.677Z,102030.88
2018-09-27T12:28:19.186Z,102023.97
2018-09-27T12:30:49.392Z,102016.59
2018-09-27T12:33:19.419Z,102004.91
2018-09-27T12:35:49.529Z,102002.23
2018-09-27T12:38:19.741Z,102001.96
2018-09-27T12:40:49.890Z,101993.69
2018-09-27T12:43:19.931Z,101985.53
2018-09-27T12:45:50.114Z,101979.98
2018-09-27T12:48:20.227Z,101979.49
2018-09-27T12:50:50.372Z,101968.56
2018-09-27T12:53:20.391Z,101965.25
2018-09-27T12:55:50.524Z,101963.45
2018-09-27T12:58:20.613Z,101956.51
2018-09-27T13:00:50.748Z,101954.02
2018-09-27T13:03:20.822Z,101948.25
2018-09-27T13:05:50.983Z,101951.70
2018-09-27T13:08:21.093Z,101944.63
2018-09-27T13:10:51.245Z,101943.44
2018-09-27T13:13:21.353Z,101937.61
2018-09-27T13:15:51.524Z,101937.97
2018-09-27T13:18:21.672Z,101930.89
2018-09-27T13:20:51.850Z,101931.71
2018-09-27T13:23:22.009Z,101927.02
2018-09-27T13:25:52.168Z,101922.83
2018-09-27T13:28:22.239Z,101917.94
2018-09-27T13:30:52.583Z,101920.19
2018-09-27T13:33:22.707Z,101914.84
2018-09-27T13:35:52.841Z,101912.00
2018-09-27T13:38:22.893Z,101911.18
2018-09-27T13:40:52.937Z,101905.25
2018-09-27T13:43:23.144Z,101898.11
2018-09-27T13:45:53.198Z,101900.30
2018-09-27T13:48:23.247Z,101885.58
2018-09-27T13:50:53.588Z,101884.34
2018-09-27T13:53:23.716Z,101878.36
2018-09-27T13:55:53.880Z,101875.14
2018-09-27T13:58:24.022Z,101864.73
2018-09-27T14:00:54.220Z,101859.57
2018-09-27T14:03:24.297Z,101862.15
2018-09-27T14:05:54.413Z,101861.42
2018-09-27T14:08:25.819Z,101858.63
2018-09-27T14:10:55.902Z,101852.46
2018-09-27T14:13:26.950Z,101853.14
2018-09-27T14:15:57.020Z,101857.01
2018-09-27T14:18:27.169Z,101846.63
2018-09-27T14:20:57.267Z,101845.57
2018-09-27T14:23:27.297Z,101841.41
2018-09-27T14:25:57.426Z,101835.47
2018-09-27T14:28:27.510Z,101835.11
2018-09-27T14:30:57.661Z,101836.32
2018-09-27T14:33:27.670Z,101832.23
2018-09-27T14:35:57.798Z,101828.91
2018-09-27T14:38:27.949Z,101820.20
2018-09-27T14:40:58.060Z,101817.19
2018-09-27T14:43:28.139Z,101820.19
2018-09-27T14:45:58.251Z,101812.39
2018-09-27T14:48:28.439Z,101807.73
2018-09-27T14:50:58.629Z,101802.04
2018-09-27T14:53:28.814Z,101801.34
2018-09-27T14:55:58.908Z,101799.02
2018-09-27T14:58:29.035Z,101792.19
2018-09-27T15:00:59.210Z,101791.31
2018-09-27T15:03:29.272Z,101789.68
2018-09-27T15:05:59.392Z,101784.98
2018-09-27T15:08:29.568Z,101777.93
2018-09-27T15:10:59.654Z,101781.25
2018-09-27T15:13:29.721Z,101777.92
2018-09-27T15:15:59.801Z,101772.41
2018-09-27T15:18:29.927Z,101774.95
2018-09-27T15:21:00.135Z,101770.59
2018-09-27T15:23:30.200Z,101766.84
2018-09-27T15:26:00.249Z,101765.87
2018-09-27T15:28:30.412Z,101752.11
2018-09-27T15:31:00.483Z,101757.84
2018-09-27T15:33:30.587Z,101753.68
2018-09-27T15:36:00.661Z,101752.84
2018-09-27T15:38:30.808Z,101748.33
2018-09-27T15:41:00.882Z,101749.34
2018-09-27T15:43:30.905Z,101745.07
2018-09-27T15:46:01.087Z,101744.28
2018-09-27T15:48:31.234Z,101737.27
2018-09-27T15:51:01.491Z,101736.42
2018-09-27T15:53:31.644Z,101738.70
2018-09-27T15:56:01.977Z,101735.02
2018-09-27T15:58:32.150Z,101725.80
2018-09-27T16:01:02.420Z,101726.06
2018-09-27T16:03:32.600Z,101735.86
2018-09-27T16:06:02.751Z,101730.48
2018-09-27T16:08:32.881Z,101729.83
2018-09-27T16:11:02.982Z,101728.73
2018-09-27T16:13:33.191Z,101730.63
2018-09-27T16:16:03.315Z,101731.66
2018-09-27T16:18:33.456Z,101732.08
2018-09-27T16:21:03.609Z,101729.29
2018-09-27T16:23:33.751Z,101718.25
2018-09-27T16:26:03.910Z,101712.66
2018-09-27T16:28:34.008Z,101709.95
2018-09-27T16:31:04.168Z,101710.12
2018-09-27T16:33:34.344Z,101711.77
2018-09-27T16:36:04.556Z,101708.16
2018-09-27T16:38:34.674Z,101716.51
2018-09-27T16:41:04.772Z,101718.05
2018-09-27T16:43:34.872Z,101715.01
2018-09-27T16:46:04.991Z,101712.41
2018-09-27T16:48:35.071Z,101705.20
2018-09-27T16:51:05.172Z,101701.77
2018-09-27T16:53:35.439Z,101703.16
2018-09-27T16:56:05.523Z,101703.90
2018-09-27T16:58:35.675Z,101702.62
2018-09-27T17:01:05.848Z,101703.23
2018-09-27T17:03:35.928Z,101702.98
2018-09-27T17:06:06.063Z,101708.42
2018-09-27T17:08:36.123Z,101711.63
2018-09-27T17:11:06.297Z,101710.58
2018-09-27T17:13:36.450Z,101707.98
2018-09-27T17:16:06.590Z,101702.54
2018-09-27T17:18:36.685Z,101701.73
2018-09-27T17:21:06.850Z,101701.06
2018-09-27T17:23:36.998Z,101697.85
2018-09-27T17:26:07.161Z,101697.09
2018-09-27T17:28:37.358Z,101695.98
2018-09-27T17:31:07.607Z,101700.66
2018-09-27T17:33:37.663Z,101701.53
2018-09-27T17:36:07.894Z,101701.13
2018-09-27T17:38:38.022Z,101696.58
2018-09-27T17:41:08.680Z,101695.16
2018-09-27T17:43:38.937Z,101694.05
2018-09-27T17:46:09.064Z,101694.64
2018-09-27T17:48:39.110Z,101700.44
2018-09-27T17:51:09.286Z,101694.44
2018-09-27T17:53:39.412Z,101692.73
2018-09-27T17:56:09.529Z,101692.09
2018-09-27T17:58:39.674Z,101695.58
2018-09-27T18:01:09.970Z,101693.19
2018-09-27T18:03:40.124Z,101701.45
2018-09-27T18:06:10.297Z,101697.41
2018-09-27T18:08:40.320Z,101697.93
2018-09-27T18:11:10.549Z,101696.50
2018-09-27T18:13:40.700Z,101692.47
2018-09-27T18:16:11.004Z,101688.41
2018-09-27T18:18:41.090Z,101691.61
2018-09-27T18:21:11.302Z,101684.58
2018-09-27T18:23:41.416Z,101684.63
2018-09-27T18:26:11.591Z,101683.97
2018-09-27T18:28:41.788Z,101684.63
2018-09-27T18:31:11.906Z,101686.09
2018-09-27T18:33:42.034Z,101681.38
2018-09-27T18:36:12.195Z,101682.98
2018-09-27T18:38:42.390Z,101680.66
2018-09-27T18:41:12.679Z,101682.21
2018-09-27T18:43:42.821Z,101681.20
2018-09-27T18:46:12.963Z,101678.02
2018-09-27T18:48:43.057Z,101681.36
2018-09-27T18:51:13.288Z,101687.78
2018-09-27T18:53:43.401Z,101688.22
2018-09-27T18:56:13.516Z,101688.15
2018-09-27T18:58:43.772Z,101690.19
2018-09-27T19:01:13.962Z,101686.91
2018-09-27T19:03:44.166Z,101684.85
2018-09-27T19:06:14.293Z,101685.88
2018-09-27T19:08:44.418Z,101693.48
2018-09-27T19:11:14.648Z,101686.44
2018-09-27T19:13:44.803Z,101694.46
2018-09-27T19:16:15.049Z,101687.03
2018-09-27T19:18:45.367Z,101686.73
2018-09-27T19:21:15.586Z,101688.65
2018-09-27T19:23:45.752Z,101686.55
2018-09-27T19:26:15.886Z,101683.22
2018-09-27T19:28:46.205Z,101680.69
2018-09-27T19:31:16.437Z,101690.00
2018-09-27T19:33:46.574Z,101690.70
2018-09-27T19:36:16.687Z,101690.42
2018-09-27T19:38:46.814Z,101690.66
2018-09-27T19:41:16.952Z,101686.45
2018-09-27T19:43:47.037Z,101688.05
2018-09-27T19:46:17.290Z,101689.66
2018-09-27T19:48:47.349Z,101690.70
2018-09-27T19:51:17.460Z,101691.83
2018-09-27T19:53:47.537Z,101688.76
2018-09-27T19:56:17.567Z,101689.92
2018-09-27T19:58:47.680Z,101696.25
2018-09-27T20:01:17.819Z,101690.81
2018-09-27T20:03:47.941Z,101694.71
2018-09-27T20:06:18.085Z,101690.67
2018-09-27T20:08:48.112Z,101687.23
2018-09-27T20:11:18.211Z,101687.94
2018-09-27T20:13:48.286Z,101683.38
2018-09-27T20:16:18.575Z,101686.28
2018-09-27T20:18:48.570Z,101690.08
2018-09-27T20:21:18.730Z,101685.91
2018-09-27T20:23:48.785Z,101680.48
2018-09-27T20:26:18.859Z,101687.73
2018-09-27T20:28:48.973Z,101694.55
2018-09-27T20:31:19.188Z,101692.48
2018-09-27T20:33:49.297Z,101696.64
2018-09-27T20:36:19.578Z,101692.36
2018-09-27T20:38:49.755Z,101697.35
2018-09-27T20:41:19.961Z,101700.88
2018-09-27T20:43:50.034Z,101697.95
2018-09-27T20:46:20.498Z,101694.98
2018-09-27T20:48:50.607Z,101690.92
2018-09-27T20:51:20.743Z,101691.42
2018-09-27T20:53:50.871Z,101689.67
2018-09-27T20:56:21.077Z,101687.56
2018-09-27T20:58:51.216Z,101688.84
2018-09-27T21:01:21.381Z,101689.06
2018-09-27T21:03:51.500Z,101689.00
2018-09-27T21:06:21.779Z,101682.30
2018-09-27T21:08:52.072Z,101684.14
2018-09-27T21:11:22.170Z,101689.20
2018-09-27T21:13:52.313Z,101693.27
2018-09-27T21:16:22.516Z,101692.97
2018-09-27T21:18:52.653Z,101688.88
2018-09-27T21:21:22.796Z,101690.30
2018-09-27T21:23:52.887Z,101682.88
2018-09-27T21:26:23.076Z,101684.33
2018-09-27T21:28:53.150Z,101691.89
2018-09-27T21:31:23.270Z,101684.46
2018-09-27T21:33:53.355Z,101684.17
2018-09-27T21:36:23.499Z,101682.95
2018-09-27T21:38:53.610Z,101684.43
2018-09-27T21:41:23.719Z,101681.98
2018-09-27T21:43:53.842Z,101682.21
2018-09-27T21:46:23.886Z,101684.55
2018-09-27T21:48:53.930Z,101687.02
2018-09-27T21:51:24.053Z,101676.16
2018-09-27T21:53:54.162Z,101678.42
2018-09-27T21:56:24.378Z,101678.98
2018-09-27T21:58:54.454Z,101687.45
2018-09-27T22:01:24.593Z,101680.55
2018-09-27T22:03:54.667Z,101679.66
2018-09-27T22:06:24.882Z,101680.52
2018-09-27T22:08:55.461Z,101681.09
2018-09-27T22:11:25.537Z,101686.86
2018-09-27T22:13:55.594Z,101688.66
2018-09-27T22:16:25.687Z,101688.84
2018-09-27T22:18:55.747Z,101689.91
2018-09-27T22:21:25.941Z,101693.06
2018-09-27T22:23:56.054Z,101696.34
2018-09-27T22:26:27.725Z,101702.60
2018-09-27T22:28:57.954Z,101697.02
2018-09-27T22:31:28.283Z,101688.36
2018-09-27T22:33:58.346Z,101682.58
2018-09-27T22:36:28.449Z,101690.48
2018-09-27T22:38:58.518Z,101687.10
2018-09-27T22:41:28.602Z,101675.88
2018-09-27T22:43:59.132Z,101675.90
2018-09-27T22:46:29.220Z,101669.86
2018-09-27T22:48:59.271Z,101670.83
2018-09-27T22:51:29.408Z,101672.71
2018-09-27T22:53:59.469Z,101668.03
2018-09-27T22:56:29.610Z,101662.47
2018-09-27T22:58:59.697Z,101661.72
2018-09-27T23:01:29.755Z,101665.40
2018-09-27T23:03:59.803Z,101665.48
2018-09-27T23:06:29.856Z,101660.87
2018-09-27T23:08:59.919Z,101663.61
2018-09-27T23:11:33.589Z,101667.56
2018-09-27T23:14:04.912Z,101665.43
2018-09-27T23:16:35.038Z,101670.48
2018-09-27T23:19:05.127Z,101673.66
2018-09-27T23:21:35.293Z,101674.22
2018-09-27T23:24:05.421Z,101674.37
2018-09-27T23:26:35.591Z,101672.69
2018-09-27T23:29:05.758Z,101669.22
2018-09-27T23:31:35.834Z,101672.40
2018-09-27T23:34:06.007Z,101672.48
2018-09-27T23:36:36.127Z,101670.70
2018-09-27T23:39:07.876Z,101677.34
2018-09-27T23:41:38.214Z,101682.20
2018-09-27T23:44:08.838Z,101683.06
2018-09-27T23:46:39.207Z,101683.54
2018-09-27T23:49:09.259Z,101685.31
2018-09-27T23:51:39.362Z,101681.41
2018-09-27T23:54:09.553Z,101682.45
2018-09-27T23:56:39.742Z,101682.49
2018-09-27T23:59:09.854Z,101678.62
